sensor_id;sensor_type;location;lat;lon;timestamp;P1;durP1;ratioP1;P2;durP2;ratioP2
75413;SDS011;64758;52.122;5.404;2023-03-01T00:01:03;8.40;;;5.80;;
75413;SDS011;64758;52.122;5.404;2023-03-01T00:03:33;10.68;;;5.68;;
75413;SDS011;64758;52.122;5.404;2023-03-01T00:06:00;10.07;;;5.20;;
75413;SDS011;64758;52.122;5.404;2023-03-01T00:08:27;7.37;;;5.40;;
75413;SDS011;64758;52.122;5.404;2023-03-01T00:11:01;9.27;;;5.18;;
75413;SDS011;64758;52.122;5.404;2023-03-01T00:13:36;8.65;;;5.38;;
75413;SDS011;64758;52.122;5.404;2023-03-01T00:16:06;7.82;;;4.85;;
75413;SDS011;64758;52.122;5.404;2023-03-01T00:18:37;8.85;;;5.00;;
75413;SDS011;64758;52.122;5.404;2023-03-01T00:21:03;8.63;;;5.37;;
75413;SDS011;64758;52.122;5.404;2023-03-01T00:23:31;11.45;;;5.13;;
75413;SDS011;64758;52.122;5.404;2023-03-01T00:26:00;9.95;;;5.70;;
75413;SDS011;64758;52.122;5.404;2023-03-01T00:28:27;11.60;;;5.32;;
75413;SDS011;64758;52.122;5.404;2023-03-01T00:30:53;8.40;;;4.78;;
75413;SDS011;64758;52.122;5.404;2023-03-01T00:33:20;8.40;;;5.33;;
75413;SDS011;64758;52.122;5.404;2023-03-01T00:35:46;10.70;;;5.55;;
75413;SDS011;64758;52.122;5.404;2023-03-01T00:38:13;7.72;;;4.95;;
75413;SDS011;64758;52.122;5.404;2023-03-01T00:40:39;8.00;;;4.47;;
75413;SDS011;64758;52.122;5.404;2023-03-01T00:43:06;8.45;;;5.10;;
75413;SDS011;64758;52.122;5.404;2023-03-01T00:45:32;13.13;;;5.63;;
75413;SDS011;64758;52.122;5.404;2023-03-01T00:47:59;8.00;;;5.43;;
75413;SDS011;64758;52.122;5.404;2023-03-01T00:50:26;8.55;;;5.00;;
75413;SDS011;64758;52.122;5.404;2023-03-01T00:52:55;11.15;;;5.13;;
75413;SDS011;64758;52.122;5.404;2023-03-01T00:55:22;9.82;;;6.00;;
75413;SDS011;64758;52.122;5.404;2023-03-01T00:57:49;13.67;;;6.50;;
75413;SDS011;64758;52.122;5.404;2023-03-01T01:00:15;9.43;;;5.43;;
75413;SDS011;64758;52.122;5.404;2023-03-01T01:02:42;8.73;;;5.43;;
75413;SDS011;64758;52.122;5.404;2023-03-01T01:05:09;9.07;;;5.93;;
75413;SDS011;64758;52.122;5.404;2023-03-01T01:07:36;10.68;;;5.63;;
75413;SDS011;64758;52.122;5.404;2023-03-01T01:10:03;11.47;;;5.97;;
75413;SDS011;64758;52.122;5.404;2023-03-01T01:12:30;8.75;;;5.70;;
75413;SDS011;64758;52.122;5.404;2023-03-01T01:14:57;13.45;;;6.22;;
75413;SDS011;64758;52.122;5.404;2023-03-01T01:17:23;10.98;;;6.28;;
75413;SDS011;64758;52.122;5.404;2023-03-01T01:19:50;10.52;;;6.30;;
75413;SDS011;64758;52.122;5.404;2023-03-01T01:22:16;9.00;;;5.80;;
75413;SDS011;64758;52.122;5.404;2023-03-01T01:24:43;10.43;;;5.40;;
75413;SDS011;64758;52.122;5.404;2023-03-01T01:27:09;11.35;;;5.35;;
75413;SDS011;64758;52.122;5.404;2023-03-01T01:29:36;8.63;;;5.05;;
75413;SDS011;64758;52.122;5.404;2023-03-01T01:32:03;8.95;;;5.10;;
75413;SDS011;64758;52.122;5.404;2023-03-01T01:34:30;10.70;;;5.47;;
75413;SDS011;64758;52.122;5.404;2023-03-01T01:36:57;9.95;;;5.38;;
75413;SDS011;64758;52.122;5.404;2023-03-01T01:39:28;9.02;;;5.10;;
75413;SDS011;64758;52.122;5.404;2023-03-01T01:41:55;10.13;;;5.72;;
75413;SDS011;64758;52.122;5.404;2023-03-01T01:44:25;9.20;;;5.22;;
75413;SDS011;64758;52.122;5.404;2023-03-01T01:46:54;10.43;;;5.13;;
75413;SDS011;64758;52.122;5.404;2023-03-01T01:52:14;8.30;;;5.97;;
75413;SDS011;64758;52.122;5.404;2023-03-01T01:54:49;9.23;;;5.25;;
75413;SDS011;64758;52.122;5.404;2023-03-01T01:57:21;7.80;;;5.07;;
75413;SDS011;64758;52.122;5.404;2023-03-01T02:00:11;10.07;;;5.40;;
75413;SDS011;64758;52.122;5.404;2023-03-01T02:02:40;7.90;;;4.38;;
75413;SDS011;64758;52.122;5.404;2023-03-01T02:05:10;7.75;;;5.05;;
75413;SDS011;64758;52.122;5.404;2023-03-01T02:07:43;7.90;;;4.72;;
75413;SDS011;64758;52.122;5.404;2023-03-01T02:10:10;11.60;;;6.03;;
75413;SDS011;64758;52.122;5.404;2023-03-01T02:12:37;10.27;;;5.20;;
75413;SDS011;64758;52.122;5.404;2023-03-01T02:15:05;9.15;;;4.97;;
75413;SDS011;64758;52.122;5.404;2023-03-01T02:17:32;9.43;;;5.10;;
75413;SDS011;64758;52.122;5.404;2023-03-01T02:20:06;10.77;;;4.88;;
75413;SDS011;64758;52.122;5.404;2023-03-01T02:22:35;8.02;;;5.28;;
75413;SDS011;64758;52.122;5.404;2023-03-01T02:30:29;8.60;;;4.80;;
75413;SDS011;64758;52.122;5.404;2023-03-01T02:32:58;8.85;;;5.95;;
75413;SDS011;64758;52.122;5.404;2023-03-01T02:35:30;9.82;;;5.03;;
75413;SDS011;64758;52.122;5.404;2023-03-01T02:38:00;8.03;;;4.87;;
75413;SDS011;64758;52.122;5.404;2023-03-01T02:40:30;8.80;;;5.40;;
75413;SDS011;64758;52.122;5.404;2023-03-01T02:43:00;7.45;;;5.13;;
75413;SDS011;64758;52.122;5.404;2023-03-01T02:45:26;7.32;;;5.25;;
75413;SDS011;64758;52.122;5.404;2023-03-01T02:47:53;8.27;;;5.18;;
75413;SDS011;64758;52.122;5.404;2023-03-01T02:55:44;7.35;;;4.72;;
75413;SDS011;64758;52.122;5.404;2023-03-01T02:58:11;9.55;;;5.70;;
75413;SDS011;64758;52.122;5.404;2023-03-01T03:00:39;8.63;;;5.60;;
75413;SDS011;64758;52.122;5.404;2023-03-01T03:03:13;12.17;;;5.90;;
75413;SDS011;64758;52.122;5.404;2023-03-01T03:05:45;8.38;;;5.35;;
75413;SDS011;64758;52.122;5.404;2023-03-01T03:08:14;9.57;;;5.50;;
75413;SDS011;64758;52.122;5.404;2023-03-01T03:10:50;7.78;;;5.38;;
75413;SDS011;64758;52.122;5.404;2023-03-01T03:13:17;8.35;;;5.47;;
75413;SDS011;64758;52.122;5.404;2023-03-01T03:15:44;9.53;;;5.20;;
75413;SDS011;64758;52.122;5.404;2023-03-01T03:18:12;11.18;;;5.72;;
75413;SDS011;64758;52.122;5.404;2023-03-01T03:20:41;10.20;;;5.60;;
75413;SDS011;64758;52.122;5.404;2023-03-01T03:23:09;10.45;;;5.38;;
75413;SDS011;64758;52.122;5.404;2023-03-01T03:25:35;10.25;;;5.80;;
75413;SDS011;64758;52.122;5.404;2023-03-01T03:28:04;9.20;;;5.67;;
75413;SDS011;64758;52.122;5.404;2023-03-01T03:30:36;10.63;;;5.38;;
75413;SDS011;64758;52.122;5.404;2023-03-01T03:33:07;9.23;;;5.22;;
75413;SDS011;64758;52.122;5.404;2023-03-01T03:35:39;8.18;;;5.07;;
75413;SDS011;64758;52.122;5.404;2023-03-01T03:38:09;10.25;;;5.22;;
75413;SDS011;64758;52.122;5.404;2023-03-01T03:40:45;9.23;;;4.93;;
75413;SDS011;64758;52.122;5.404;2023-03-01T03:43:18;10.05;;;5.25;;
75413;SDS011;64758;52.122;5.404;2023-03-01T03:45:47;9.15;;;4.90;;
75413;SDS011;64758;52.122;5.404;2023-03-01T03:48:15;7.15;;;4.95;;
75413;SDS011;64758;52.122;5.404;2023-03-01T03:50:46;10.32;;;5.10;;
75413;SDS011;64758;52.122;5.404;2023-03-01T03:53:15;8.27;;;5.07;;
75413;SDS011;64758;52.122;5.404;2023-03-01T03:55:42;7.75;;;5.30;;
75413;SDS011;64758;52.122;5.404;2023-03-01T03:58:10;11.65;;;5.65;;
75413;SDS011;64758;52.122;5.404;2023-03-01T04:00:38;10.10;;;5.70;;
75413;SDS011;64758;52.122;5.404;2023-03-01T04:03:08;9.07;;;6.00;;
75413;SDS011;64758;52.122;5.404;2023-03-01T04:05:36;9.47;;;5.13;;
75413;SDS011;64758;52.122;5.404;2023-03-01T04:08:04;10.55;;;5.50;;
75413;SDS011;64758;52.122;5.404;2023-03-01T04:10:45;9.15;;;5.20;;
75413;SDS011;64758;52.122;5.404;2023-03-01T04:13:15;8.15;;;5.43;;
75413;SDS011;64758;52.122;5.404;2023-03-01T04:15:45;7.50;;;5.30;;
75413;SDS011;64758;52.122;5.404;2023-03-01T04:18:15;7.23;;;4.93;;
75413;SDS011;64758;52.122;5.404;2023-03-01T04:20:44;9.65;;;5.85;;
75413;SDS011;64758;52.122;5.404;2023-03-01T04:23:13;8.40;;;5.18;;
75413;SDS011;64758;52.122;5.404;2023-03-01T04:25:49;11.07;;;5.95;;
75413;SDS011;64758;52.122;5.404;2023-03-01T04:28:28;7.15;;;4.95;;
75413;SDS011;64758;52.122;5.404;2023-03-01T04:30:57;8.10;;;5.40;;
75413;SDS011;64758;52.122;5.404;2023-03-01T04:33:25;11.90;;;5.93;;
75413;SDS011;64758;52.122;5.404;2023-03-01T04:35:52;10.13;;;6.07;;
75413;SDS011;64758;52.122;5.404;2023-03-01T04:38:19;8.32;;;5.50;;
75413;SDS011;64758;52.122;5.404;2023-03-01T04:40:47;8.43;;;4.78;;
75413;SDS011;64758;52.122;5.404;2023-03-01T04:43:14;7.50;;;4.83;;
75413;SDS011;64758;52.122;5.404;2023-03-01T04:45:41;11.65;;;5.15;;
75413;SDS011;64758;52.122;5.404;2023-03-01T04:48:08;9.18;;;5.25;;
75413;SDS011;64758;52.122;5.404;2023-03-01T04:50:34;12.57;;;6.28;;
75413;SDS011;64758;52.122;5.404;2023-03-01T04:53:01;8.73;;;5.33;;
75413;SDS011;64758;52.122;5.404;2023-03-01T04:55:28;12.10;;;5.68;;
75413;SDS011;64758;52.122;5.404;2023-03-01T04:57:55;8.85;;;5.40;;
75413;SDS011;64758;52.122;5.404;2023-03-01T05:00:22;8.80;;;5.45;;
75413;SDS011;64758;52.122;5.404;2023-03-01T05:03:11;10.52;;;5.75;;
75413;SDS011;64758;52.122;5.404;2023-03-01T05:05:37;9.33;;;5.00;;
75413;SDS011;64758;52.122;5.404;2023-03-01T05:08:05;8.38;;;5.43;;
75413;SDS011;64758;52.122;5.404;2023-03-01T05:10:34;9.85;;;5.47;;
75413;SDS011;64758;52.122;5.404;2023-03-01T05:13:02;11.93;;;6.50;;
75413;SDS011;64758;52.122;5.404;2023-03-01T05:15:30;10.17;;;6.10;;
75413;SDS011;64758;52.122;5.404;2023-03-01T05:17:58;12.30;;;6.45;;
75413;SDS011;64758;52.122;5.404;2023-03-01T05:20:29;15.85;;;7.00;;
75413;SDS011;64758;52.122;5.404;2023-03-01T05:22:57;11.32;;;6.22;;
75413;SDS011;64758;52.122;5.404;2023-03-01T05:25:25;11.43;;;6.77;;
75413;SDS011;64758;52.122;5.404;2023-03-01T05:27:53;11.77;;;6.13;;
75413;SDS011;64758;52.122;5.404;2023-03-01T05:30:19;9.63;;;6.05;;
75413;SDS011;64758;52.122;5.404;2023-03-01T05:32:48;12.95;;;6.13;;
75413;SDS011;64758;52.122;5.404;2023-03-01T05:35:16;12.32;;;7.15;;
75413;SDS011;64758;52.122;5.404;2023-03-01T05:37:44;11.63;;;6.63;;
75413;SDS011;64758;52.122;5.404;2023-03-01T05:40:14;10.00;;;6.22;;
75413;SDS011;64758;52.122;5.404;2023-03-01T05:42:43;12.23;;;6.32;;
75413;SDS011;64758;52.122;5.404;2023-03-01T05:45:18;13.10;;;6.53;;
75413;SDS011;64758;52.122;5.404;2023-03-01T05:47:45;11.65;;;6.88;;
75413;SDS011;64758;52.122;5.404;2023-03-01T05:50:22;11.60;;;6.72;;
75413;SDS011;64758;52.122;5.404;2023-03-01T05:53:01;10.25;;;6.50;;
75413;SDS011;64758;52.122;5.404;2023-03-01T05:55:34;10.10;;;6.15;;
75413;SDS011;64758;52.122;5.404;2023-03-01T05:58:03;10.30;;;5.97;;
75413;SDS011;64758;52.122;5.404;2023-03-01T06:00:37;10.33;;;6.40;;
75413;SDS011;64758;52.122;5.404;2023-03-01T06:03:03;10.60;;;6.45;;
75413;SDS011;64758;52.122;5.404;2023-03-01T06:05:30;9.57;;;6.20;;
75413;SDS011;64758;52.122;5.404;2023-03-01T06:08:00;11.82;;;6.03;;
75413;SDS011;64758;52.122;5.404;2023-03-01T06:10:27;10.02;;;6.03;;
75413;SDS011;64758;52.122;5.404;2023-03-01T06:12:53;11.17;;;6.27;;
75413;SDS011;64758;52.122;5.404;2023-03-01T06:15:20;12.45;;;6.57;;
75413;SDS011;64758;52.122;5.404;2023-03-01T06:17:48;9.35;;;5.97;;
75413;SDS011;64758;52.122;5.404;2023-03-01T06:20:21;8.90;;;5.78;;
75413;SDS011;64758;52.122;5.404;2023-03-01T06:22:50;10.07;;;5.82;;
75413;SDS011;64758;52.122;5.404;2023-03-01T06:25:21;10.55;;;5.60;;
75413;SDS011;64758;52.122;5.404;2023-03-01T06:27:49;10.48;;;6.32;;
75413;SDS011;64758;52.122;5.404;2023-03-01T06:30:18;10.75;;;6.45;;
75413;SDS011;64758;52.122;5.404;2023-03-01T06:32:46;11.90;;;5.57;;
75413;SDS011;64758;52.122;5.404;2023-03-01T06:35:13;11.38;;;6.38;;
75413;SDS011;64758;52.122;5.404;2023-03-01T06:37:44;12.13;;;6.65;;
75413;SDS011;64758;52.122;5.404;2023-03-01T06:40:11;10.05;;;6.40;;
75413;SDS011;64758;52.122;5.404;2023-03-01T06:42:40;11.25;;;6.38;;
75413;SDS011;64758;52.122;5.404;2023-03-01T06:45:09;13.07;;;6.50;;
75413;SDS011;64758;52.122;5.404;2023-03-01T06:47:36;10.48;;;5.82;;
75413;SDS011;64758;52.122;5.404;2023-03-01T06:50:02;13.45;;;6.47;;
75413;SDS011;64758;52.122;5.404;2023-03-01T06:52:29;10.88;;;6.35;;
75413;SDS011;64758;52.122;5.404;2023-03-01T06:54:56;9.80;;;5.70;;
75413;SDS011;64758;52.122;5.404;2023-03-01T06:57:22;15.75;;;6.75;;
75413;SDS011;64758;52.122;5.404;2023-03-01T06:59:49;10.60;;;5.70;;
75413;SDS011;64758;52.122;5.404;2023-03-01T07:02:15;10.05;;;5.95;;
75413;SDS011;64758;52.122;5.404;2023-03-01T07:04:42;9.63;;;6.22;;
75413;SDS011;64758;52.122;5.404;2023-03-01T07:07:08;9.73;;;5.60;;
75413;SDS011;64758;52.122;5.404;2023-03-01T07:09:35;12.38;;;6.15;;
75413;SDS011;64758;52.122;5.404;2023-03-01T07:12:02;10.60;;;6.28;;
75413;SDS011;64758;52.122;5.404;2023-03-01T07:14:29;11.45;;;6.47;;
75413;SDS011;64758;52.122;5.404;2023-03-01T07:16:55;10.83;;;6.23;;
75413;SDS011;64758;52.122;5.404;2023-03-01T07:19:22;11.00;;;6.07;;
75413;SDS011;64758;52.122;5.404;2023-03-01T07:21:49;11.95;;;6.30;;
75413;SDS011;64758;52.122;5.404;2023-03-01T07:24:15;10.90;;;6.70;;
75413;SDS011;64758;52.122;5.404;2023-03-01T07:26:42;12.13;;;6.32;;
75413;SDS011;64758;52.122;5.404;2023-03-01T07:29:09;12.20;;;6.90;;
75413;SDS011;64758;52.122;5.404;2023-03-01T07:31:37;10.70;;;6.15;;
75413;SDS011;64758;52.122;5.404;2023-03-01T07:34:03;11.27;;;6.45;;
75413;SDS011;64758;52.122;5.404;2023-03-01T07:36:30;15.40;;;7.40;;
75413;SDS011;64758;52.122;5.404;2023-03-01T07:38:57;12.20;;;6.47;;
75413;SDS011;64758;52.122;5.404;2023-03-01T07:41:24;14.10;;;6.73;;
75413;SDS011;64758;52.122;5.404;2023-03-01T07:43:51;16.02;;;7.55;;
75413;SDS011;64758;52.122;5.404;2023-03-01T07:46:17;15.80;;;7.85;;
75413;SDS011;64758;52.122;5.404;2023-03-01T07:48:45;18.25;;;8.00;;
75413;SDS011;64758;52.122;5.404;2023-03-01T07:51:12;13.57;;;7.57;;
75413;SDS011;64758;52.122;5.404;2023-03-01T07:53:39;12.67;;;7.73;;
75413;SDS011;64758;52.122;5.404;2023-03-01T07:56:07;13.85;;;7.97;;
75413;SDS011;64758;52.122;5.404;2023-03-01T07:58:36;12.82;;;7.80;;
75413;SDS011;64758;52.122;5.404;2023-03-01T08:01:05;15.13;;;8.88;;
75413;SDS011;64758;52.122;5.404;2023-03-01T08:03:33;14.25;;;7.45;;
75413;SDS011;64758;52.122;5.404;2023-03-01T08:06:00;17.93;;;8.33;;
75413;SDS011;64758;52.122;5.404;2023-03-01T08:08:31;17.10;;;8.40;;
75413;SDS011;64758;52.122;5.404;2023-03-01T08:10:59;17.23;;;9.07;;
75413;SDS011;64758;52.122;5.404;2023-03-01T08:13:27;14.52;;;8.57;;
75413;SDS011;64758;52.122;5.404;2023-03-01T08:15:53;18.33;;;8.63;;
75413;SDS011;64758;52.122;5.404;2023-03-01T08:18:20;15.07;;;7.87;;
75413;SDS011;64758;52.122;5.404;2023-03-01T08:20:47;18.25;;;9.13;;
75413;SDS011;64758;52.122;5.404;2023-03-01T08:23:14;19.95;;;8.57;;
75413;SDS011;64758;52.122;5.404;2023-03-01T08:25:41;14.20;;;7.80;;
75413;SDS011;64758;52.122;5.404;2023-03-01T08:28:07;14.80;;;8.57;;
75413;SDS011;64758;52.122;5.404;2023-03-01T08:30:34;16.03;;;8.30;;
75413;SDS011;64758;52.122;5.404;2023-03-01T08:33:00;14.18;;;7.93;;
75413;SDS011;64758;52.122;5.404;2023-03-01T08:35:27;12.13;;;7.00;;
75413;SDS011;64758;52.122;5.404;2023-03-01T08:37:53;11.80;;;6.80;;
75413;SDS011;64758;52.122;5.404;2023-03-01T08:40:20;12.70;;;6.22;;
75413;SDS011;64758;52.122;5.404;2023-03-01T08:42:46;9.73;;;5.83;;
75413;SDS011;64758;52.122;5.404;2023-03-01T08:45:13;11.40;;;6.10;;
75413;SDS011;64758;52.122;5.404;2023-03-01T08:47:44;10.32;;;6.30;;
75413;SDS011;64758;52.122;5.404;2023-03-01T08:50:11;10.00;;;5.25;;
75413;SDS011;64758;52.122;5.404;2023-03-01T08:52:37;13.60;;;5.68;;
75413;SDS011;64758;52.122;5.404;2023-03-01T08:55:04;11.37;;;6.30;;
75413;SDS011;64758;52.122;5.404;2023-03-01T08:57:31;8.45;;;5.30;;
75413;SDS011;64758;52.122;5.404;2023-03-01T08:59:58;10.20;;;5.90;;
75413;SDS011;64758;52.122;5.404;2023-03-01T09:02:24;7.53;;;5.25;;
75413;SDS011;64758;52.122;5.404;2023-03-01T09:04:51;8.15;;;4.55;;
75413;SDS011;64758;52.122;5.404;2023-03-01T09:07:17;8.30;;;4.37;;
75413;SDS011;64758;52.122;5.404;2023-03-01T09:09:44;11.43;;;5.00;;
75413;SDS011;64758;52.122;5.404;2023-03-01T09:12:10;8.05;;;5.13;;
75413;SDS011;64758;52.122;5.404;2023-03-01T09:14:37;9.00;;;5.20;;
75413;SDS011;64758;52.122;5.404;2023-03-01T09:17:04;7.43;;;4.60;;
75413;SDS011;64758;52.122;5.404;2023-03-01T09:19:31;10.73;;;4.50;;
75413;SDS011;64758;52.122;5.404;2023-03-01T09:21:58;7.45;;;4.18;;
75413;SDS011;64758;52.122;5.404;2023-03-01T09:24:24;8.70;;;4.82;;
75413;SDS011;64758;52.122;5.404;2023-03-01T09:26:55;10.23;;;4.60;;
75413;SDS011;64758;52.122;5.404;2023-03-01T09:29:22;9.02;;;4.50;;
75413;SDS011;64758;52.122;5.404;2023-03-01T09:31:49;7.73;;;3.70;;
75413;SDS011;64758;52.122;5.404;2023-03-01T09:34:16;5.40;;;3.38;;
75413;SDS011;64758;52.122;5.404;2023-03-01T09:36:45;5.60;;;4.03;;
75413;SDS011;64758;52.122;5.404;2023-03-01T09:39:11;6.25;;;3.75;;
75413;SDS011;64758;52.122;5.404;2023-03-01T09:46:58;6.07;;;3.25;;
75413;SDS011;64758;52.122;5.404;2023-03-01T09:49:27;6.60;;;3.40;;
75413;SDS011;64758;52.122;5.404;2023-03-01T09:54:26;5.75;;;3.10;;
75413;SDS011;64758;52.122;5.404;2023-03-01T09:59:26;6.38;;;3.25;;
75413;SDS011;64758;52.122;5.404;2023-03-01T10:09:17;5.70;;;2.40;;
75413;SDS011;64758;52.122;5.404;2023-03-01T10:11:28;4.83;;;2.13;;
75413;SDS011;64758;52.122;5.404;2023-03-01T10:14:19;4.10;;;2.20;;
75413;SDS011;64758;52.122;5.404;2023-03-01T10:19:31;5.13;;;2.42;;
75413;SDS011;64758;52.122;5.404;2023-03-01T10:22:04;4.63;;;1.75;;
75413;SDS011;64758;52.122;5.404;2023-03-01T10:24:39;5.63;;;2.33;;
75413;SDS011;64758;52.122;5.404;2023-03-01T10:27:10;5.05;;;2.70;;
75413;SDS011;64758;52.122;5.404;2023-03-01T10:29:50;4.70;;;2.25;;
75413;SDS011;64758;52.122;5.404;2023-03-01T10:32:28;4.13;;;2.45;;
75413;SDS011;64758;52.122;5.404;2023-03-01T10:34:55;3.55;;;2.20;;
75413;SDS011;64758;52.122;5.404;2023-03-01T10:37:23;5.57;;;2.57;;
75413;SDS011;64758;52.122;5.404;2023-03-01T10:39:55;4.97;;;2.90;;
75413;SDS011;64758;52.122;5.404;2023-03-01T10:42:46;4.35;;;2.67;;
75413;SDS011;64758;52.122;5.404;2023-03-01T10:45:38;4.72;;;1.98;;
75413;SDS011;64758;52.122;5.404;2023-03-01T10:50:41;3.43;;;1.70;;
75413;SDS011;64758;52.122;5.404;2023-03-01T10:53:43;3.50;;;1.48;;
75413;SDS011;64758;52.122;5.404;2023-03-01T10:56:08;2.63;;;1.73;;
75413;SDS011;64758;52.122;5.404;2023-03-01T10:58:40;14.65;;;4.65;;
75413;SDS011;64758;52.122;5.404;2023-03-01T11:06:35;4.95;;;2.28;;
75413;SDS011;64758;52.122;5.404;2023-03-01T11:09:22;2.92;;;1.60;;
75413;SDS011;64758;52.122;5.404;2023-03-01T11:11:51;3.75;;;1.75;;
75413;SDS011;64758;52.122;5.404;2023-03-01T11:14:27;4.78;;;1.88;;
75413;SDS011;64758;52.122;5.404;2023-03-01T11:17:03;3.27;;;1.40;;
75413;SDS011;64758;52.122;5.404;2023-03-01T11:19:37;3.30;;;1.77;;
75413;SDS011;64758;52.122;5.404;2023-03-01T11:22:10;3.00;;;1.52;;
75413;SDS011;64758;52.122;5.404;2023-03-01T11:24:40;2.75;;;1.55;;
75413;SDS011;64758;52.122;5.404;2023-03-01T11:29:56;3.43;;;1.70;;
75413;SDS011;64758;52.122;5.404;2023-03-01T11:32:40;3.22;;;1.55;;
75413;SDS011;64758;52.122;5.404;2023-03-01T11:40:38;2.67;;;1.27;;
75413;SDS011;64758;52.122;5.404;2023-03-01T11:43:19;3.53;;;1.60;;
75413;SDS011;64758;52.122;5.404;2023-03-01T11:51:33;3.20;;;1.80;;
75413;SDS011;64758;52.122;5.404;2023-03-01T11:57:14;2.40;;;1.37;;
75413;SDS011;64758;52.122;5.404;2023-03-01T12:00:15;4.00;;;2.03;;
75413;SDS011;64758;52.122;5.404;2023-03-01T12:03:49;3.45;;;2.00;;
75413;SDS011;64758;52.122;5.404;2023-03-01T12:06:00;3.88;;;1.98;;
75413;SDS011;64758;52.122;5.404;2023-03-01T12:26:02;3.43;;;1.90;;
75413;SDS011;64758;52.122;5.404;2023-03-01T12:34:11;3.75;;;1.95;;
75413;SDS011;64758;52.122;5.404;2023-03-01T12:39:32;5.57;;;1.87;;
75413;SDS011;64758;52.122;5.404;2023-03-01T12:42:08;4.50;;;2.35;;
75413;SDS011;64758;52.122;5.404;2023-03-01T12:44:42;4.88;;;1.90;;
75413;SDS011;64758;52.122;5.404;2023-03-01T12:50:01;4.05;;;2.05;;
75413;SDS011;64758;52.122;5.404;2023-03-01T12:55:08;2.88;;;2.05;;
75413;SDS011;64758;52.122;5.404;2023-03-01T13:01:16;5.20;;;2.22;;
75413;SDS011;64758;52.122;5.404;2023-03-01T13:11:57;4.30;;;2.00;;
75413;SDS011;64758;52.122;5.404;2023-03-01T13:16:51;4.57;;;2.00;;
75413;SDS011;64758;52.122;5.404;2023-03-01T13:19:19;3.97;;;1.90;;
75413;SDS011;64758;52.122;5.404;2023-03-01T13:21:51;4.57;;;2.28;;
75413;SDS011;64758;52.122;5.404;2023-03-01T13:24:26;4.72;;;2.53;;
75413;SDS011;64758;52.122;5.404;2023-03-01T13:29:50;4.40;;;2.00;;
75413;SDS011;64758;52.122;5.404;2023-03-01T13:32:24;6.33;;;2.50;;
75413;SDS011;64758;52.122;5.404;2023-03-01T13:37:45;3.75;;;2.33;;
75413;SDS011;64758;52.122;5.404;2023-03-01T13:42:47;4.05;;;2.38;;
75413;SDS011;64758;52.122;5.404;2023-03-01T13:45:40;5.13;;;2.30;;
75413;SDS011;64758;52.122;5.404;2023-03-01T13:50:55;3.92;;;2.47;;
75413;SDS011;64758;52.122;5.404;2023-03-01T13:53:25;4.00;;;2.42;;
75413;SDS011;64758;52.122;5.404;2023-03-01T13:55:57;3.20;;;2.08;;
75413;SDS011;64758;52.122;5.404;2023-03-01T13:58:28;2.80;;;2.00;;
75413;SDS011;64758;52.122;5.404;2023-03-01T14:01:06;4.93;;;2.10;;
75413;SDS011;64758;52.122;5.404;2023-03-01T14:03:46;4.47;;;2.10;;
75413;SDS011;64758;52.122;5.404;2023-03-01T14:06:14;4.47;;;2.20;;
75413;SDS011;64758;52.122;5.404;2023-03-01T14:08:46;4.30;;;1.73;;
75413;SDS011;64758;52.122;5.404;2023-03-01T14:11:31;3.17;;;1.92;;
75413;SDS011;64758;52.122;5.404;2023-03-01T14:14:21;2.97;;;2.10;;
75413;SDS011;64758;52.122;5.404;2023-03-01T14:19:34;6.05;;;2.10;;
75413;SDS011;64758;52.122;5.404;2023-03-01T14:22:03;4.30;;;2.03;;
75413;SDS011;64758;52.122;5.404;2023-03-01T14:24:31;6.57;;;2.20;;
75413;SDS011;64758;52.122;5.404;2023-03-01T14:27:01;4.93;;;2.42;;
75413;SDS011;64758;52.122;5.404;2023-03-01T14:29:35;3.30;;;1.77;;
75413;SDS011;64758;52.122;5.404;2023-03-01T14:34:38;3.35;;;2.17;;
75413;SDS011;64758;52.122;5.404;2023-03-01T14:37:10;5.33;;;2.70;;
75413;SDS011;64758;52.122;5.404;2023-03-01T14:39:43;4.18;;;2.20;;
75413;SDS011;64758;52.122;5.404;2023-03-01T14:42:11;3.45;;;2.08;;
75413;SDS011;64758;52.122;5.404;2023-03-01T14:44:45;3.65;;;2.15;;
75413;SDS011;64758;52.122;5.404;2023-03-01T14:47:23;2.92;;;1.75;;
75413;SDS011;64758;52.122;5.404;2023-03-01T14:49:50;6.13;;;2.30;;
75413;SDS011;64758;52.122;5.404;2023-03-01T14:52:25;4.47;;;2.93;;
75413;SDS011;64758;52.122;5.404;2023-03-01T14:58:14;4.05;;;3.00;;
75413;SDS011;64758;52.122;5.404;2023-03-01T15:00:52;3.85;;;2.70;;
75413;SDS011;64758;52.122;5.404;2023-03-01T15:06:05;3.47;;;2.37;;
75413;SDS011;64758;52.122;5.404;2023-03-01T15:08:33;3.20;;;2.65;;
75413;SDS011;64758;52.122;5.404;2023-03-01T15:13:33;4.00;;;3.03;;
75413;SDS011;64758;52.122;5.404;2023-03-01T15:16:08;4.18;;;2.90;;
75413;SDS011;64758;52.122;5.404;2023-03-01T15:18:50;4.83;;;3.00;;
75413;SDS011;64758;52.122;5.404;2023-03-01T15:21:20;5.03;;;3.00;;
75413;SDS011;64758;52.122;5.404;2023-03-01T15:23:50;3.15;;;2.60;;
75413;SDS011;64758;52.122;5.404;2023-03-01T15:26:52;3.08;;;2.47;;
75413;SDS011;64758;52.122;5.404;2023-03-01T15:29:24;3.90;;;2.78;;
75413;SDS011;64758;52.122;5.404;2023-03-01T15:31:57;4.13;;;2.93;;
75413;SDS011;64758;52.122;5.404;2023-03-01T15:34:35;4.25;;;2.70;;
75413;SDS011;64758;52.122;5.404;2023-03-01T15:37:04;3.97;;;2.78;;
75413;SDS011;64758;52.122;5.404;2023-03-01T15:39:42;5.47;;;2.97;;
75413;SDS011;64758;52.122;5.404;2023-03-01T15:47:40;5.63;;;3.20;;
75413;SDS011;64758;52.122;5.404;2023-03-01T15:50:16;4.38;;;3.55;;
75413;SDS011;64758;52.122;5.404;2023-03-01T15:52:45;4.93;;;3.03;;
75413;SDS011;64758;52.122;5.404;2023-03-01T15:55:19;4.10;;;3.28;;
75413;SDS011;64758;52.122;5.404;2023-03-01T15:57:48;4.27;;;2.93;;
75413;SDS011;64758;52.122;5.404;2023-03-01T16:00:16;3.72;;;3.08;;
75413;SDS011;64758;52.122;5.404;2023-03-01T16:02:43;4.75;;;2.75;;
75413;SDS011;64758;52.122;5.404;2023-03-01T16:05:18;4.65;;;2.80;;
75413;SDS011;64758;52.122;5.404;2023-03-01T16:07:47;3.70;;;2.88;;
75413;SDS011;64758;52.122;5.404;2023-03-01T16:10:13;4.07;;;2.93;;
75413;SDS011;64758;52.122;5.404;2023-03-01T16:12:40;4.97;;;2.85;;
75413;SDS011;64758;52.122;5.404;2023-03-01T16:15:23;4.72;;;3.25;;
75413;SDS011;64758;52.122;5.404;2023-03-01T16:17:52;6.55;;;3.00;;
75413;SDS011;64758;52.122;5.404;2023-03-01T16:20:19;4.57;;;3.05;;
75413;SDS011;64758;52.122;5.404;2023-03-01T16:22:53;5.33;;;3.13;;
75413;SDS011;64758;52.122;5.404;2023-03-01T16:25:20;6.38;;;3.60;;
75413;SDS011;64758;52.122;5.404;2023-03-01T16:27:48;5.00;;;3.28;;
75413;SDS011;64758;52.122;5.404;2023-03-01T16:30:18;4.97;;;3.60;;
75413;SDS011;64758;52.122;5.404;2023-03-01T16:32:46;6.22;;;3.58;;
75413;SDS011;64758;52.122;5.404;2023-03-01T16:35:15;4.33;;;3.17;;
75413;SDS011;64758;52.122;5.404;2023-03-01T16:37:44;4.07;;;2.83;;
75413;SDS011;64758;52.122;5.404;2023-03-01T16:40:19;7.07;;;3.38;;
75413;SDS011;64758;52.122;5.404;2023-03-01T16:42:50;4.28;;;2.83;;
75413;SDS011;64758;52.122;5.404;2023-03-01T16:45:18;4.35;;;3.00;;
75413;SDS011;64758;52.122;5.404;2023-03-01T16:47:50;4.63;;;3.50;;
75413;SDS011;64758;52.122;5.404;2023-03-01T16:50:21;4.55;;;3.22;;
75413;SDS011;64758;52.122;5.404;2023-03-01T16:52:48;3.85;;;3.08;;
75413;SDS011;64758;52.122;5.404;2023-03-01T16:55:15;5.20;;;3.03;;
75413;SDS011;64758;52.122;5.404;2023-03-01T16:57:41;5.85;;;3.03;;
75413;SDS011;64758;52.122;5.404;2023-03-01T17:00:08;4.43;;;2.90;;
75413;SDS011;64758;52.122;5.404;2023-03-01T17:02:36;4.35;;;3.05;;
75413;SDS011;64758;52.122;5.404;2023-03-01T17:05:03;3.75;;;2.90;;
75413;SDS011;64758;52.122;5.404;2023-03-01T17:07:31;4.22;;;3.05;;
75413;SDS011;64758;52.122;5.404;2023-03-01T17:10:02;6.00;;;3.03;;
75413;SDS011;64758;52.122;5.404;2023-03-01T17:12:30;6.80;;;3.25;;
75413;SDS011;64758;52.122;5.404;2023-03-01T17:14:58;5.20;;;2.75;;